Dunseith, North Dakota
Current Conditions -  °F | °C
As of 6:15 PM on Friday 28 Nov 2014 (Local Time) from K06D Reporting Station
Light Snow Light Snow  
Wind Chill: -7°   Ceiling: 400
Heat Index: 10°   Visibility: 10mi
Dew Point:   Wind: 17mph
Humidity: 92%   Direction: 140°SE
Pressure: 29.57"   Gusts: 21mph
Location:  48.81°N, 100.06°W
Report Text: K06D 290015Z AUTO 14015G18KT 10SM -SN OVC004 M12/M13 A2957 RMK AO2
Loading
Personal Weather Stations






























Interactive Weather Map New forecast layout! Learn more

10-Day Weather Forecast

Advertisements
Track Severe Weather on mobile